Time;durP1;ratioP1;P1;durP2;ratioP2;P2;SDS_P1;SDS_P2;PMS_P1;PMS_P2;Temp;Humidity;BMP_temperature;BMP_pressure;BME280_temperature;BME280_humidity;BME280_pressure;Samples;Min_cycle;Max_cycle;Signal;HPM_P1;HPM_P2
2022/06/19 00:01:12;;;;;;;;;17.33;16.00;;;;;30.82;39.59;100174.50;5078929;27;46382;-70
2022/06/19 00:03:48;;;;;;;;;17.00;14.67;;;;;30.18;39.86;100098.91;5079020;27;45317;-71
2022/06/19 00:06:14;;;;;;;;;19.00;11.00;;;;;30.81;41.25;100206.63;5078909;27;45583;-72
2022/06/19 00:08:40;;;;;;;;;16.67;16.33;;;;;30.72;41.92;100191.09;5078658;27;46409;-72
2022/06/19 00:11:08;;;;;;;;;13.33;13.33;;;;;30.62;41.79;100207.66;5078625;27;45560;-69
2022/06/19 00:13:34;;;;;;;;;15.00;13.33;;;;;30.52;42.28;100222.25;5078713;27;45397;-70
2022/06/19 00:15:59;;;;;;;;;15.67;15.00;;;;;29.84;42.87;100146.34;5078937;27;45407;-70
2022/06/19 00:18:25;;;;;;;;;20.00;16.67;;;;;30.07;42.98;100240.75;5078853;28;45649;-73
2022/06/19 00:20:51;;;;;;;;;14.33;12.00;;;;;30.21;43.44;100282.03;5094662;27;45218;-70
2022/06/19 00:23:16;;;;;;;;;16.33;14.33;;;;;30.12;43.75;100267.31;5078931;27;45338;-73
2022/06/19 00:25:42;;;;;;;;;16.67;15.67;;;;;30.04;43.54;100265.19;5078789;27;45436;-69
2022/06/19 00:28:08;;;;;;;;;12.67;12.67;;;;;29.91;43.33;100280.28;5078326;27;45688;-72
2022/06/19 00:30:33;;;;;;;;;15.33;13.67;;;;;28.97;43.01;100142.44;5078497;27;45419;-73
2022/06/19 00:32:59;;;;;;;;;12.33;11.33;;;;;29.53;43.37;100251.72;5078648;27;45308;-71
2022/06/19 00:35:26;;;;;;;;;13.00;13.00;;;;;29.50;43.11;100279.69;5077342;28;45343;-69
2022/06/19 00:37:53;;;;;;;;;13.00;11.00;;;;;28.72;42.60;100148.78;5078406;27;46423;-69
2022/06/19 00:40:19;;;;;;;;;14.67;13.33;;;;;29.24;42.52;100248.81;5076852;28;46154;-72
2022/06/19 00:42:44;;;;;;;;;16.00;12.00;;;;;29.12;42.73;100238.19;5078666;27;45285;-69
2022/06/19 00:45:30;;;;;;;;;10.67;10.00;;;;;28.99;42.51;100250.53;5078706;27;45542;-72
2022/06/19 00:47:56;;;;;;;;;11.00;10.67;;;;;28.74;42.56;100218.53;5078061;28;46237;-70
2022/06/19 00:50:31;;;;;;;;;10.67;9.00;;;;;28.45;43.27;100228.44;5079020;28;45487;-71
2022/06/19 00:52:57;;;;;;;;;11.00;9.00;;;;;27.72;43.84;100205.94;5080646;27;45429;-69
2022/06/19 00:55:34;;;;;;;;;9.00;9.00;;;;;27.73;43.40;100251.28;5078427;27;45351;-71
2022/06/19 00:58:16;;;;;;;;;8.00;7.00;;;;;27.70;43.36;100301.81;5078202;27;46467;-69
2022/06/19 01:00:42;;;;;;;;;8.00;7.00;;;;;27.44;43.17;100270.00;5093431;27;45260;-70
2022/06/19 01:03:25;;;;;;;;;10.33;9.00;;;;;27.49;42.73;100286.41;5078113;27;45454;-71
2022/06/19 01:05:51;;;;;;;;;11.00;8.67;;;;;27.04;43.19;100259.72;5078332;27;45186;-71
2022/06/19 01:08:17;;;;;;;;;8.33;7.33;;;;;27.15;43.22;100300.44;5077525;27;45737;-73
2022/06/19 01:10:46;;;;;;;;;11.00;9.33;;;;;27.09;43.25;100323.31;5093428;27;45371;-71
2022/06/19 01:13:14;;;;;;;;;11.00;7.33;;;;;26.77;43.97;100314.31;5093607;27;45388;-68
2022/06/19 01:15:40;;;;;;;;;8.00;8.00;;;;;26.34;43.67;100257.00;5077874;27;45324;-70
2022/06/19 01:18:08;;;;;;;;;9.67;8.67;;;;;26.29;44.16;100329.69;5093371;27;48123;-71
2022/06/19 01:20:35;;;;;;;;;10.67;8.00;;;;;26.13;44.14;100323.28;5076468;27;46611;-71
2022/06/19 01:23:11;;;;;;;;;12.00;8.00;;;;;25.91;44.27;100300.69;5077823;27;45337;-70
2022/06/19 01:25:39;;;;;;;;;11.67;10.00;;;;;25.66;44.97;100310.19;5077669;27;45394;-69
2022/06/19 01:31:19;;;;;;;;;9.67;8.67;;;;;25.25;45.89;100316.19;5077317;28;46058;-71
2022/06/19 01:33:50;;;;;;;;;10.67;9.33;;;;;25.08;45.53;100300.72;5077492;27;45303;-71
2022/06/19 01:36:19;;;;;;;;;9.67;9.67;;;;;24.99;45.85;100296.75;5076101;28;45575;-69
2022/06/19 01:38:49;;;;;;;;;12.00;11.33;;;;;24.84;46.05;100334.59;5077401;27;46383;-70
2022/06/19 01:41:21;;;;;;;;;14.00;13.00;;;;;24.53;46.40;100323.19;5092975;27;45942;-69
2022/06/19 01:43:47;;;;;;;;;17.00;13.67;;;;;24.35;47.13;100347.06;5077350;27;45453;-71
2022/06/19 01:46:14;;;;;;;;;17.67;14.00;;;;;23.98;47.59;100310.22;5077324;27;45639;-69
2022/06/19 01:48:41;;;;;;;;;16.33;13.67;;;;;24.07;47.20;100342.44;5076952;27;46413;-69
2022/06/19 01:51:08;;;;;;;;;13.67;11.67;;;;;24.03;47.80;100338.53;5077030;27;45695;-70
2022/06/19 01:53:59;;;;;;;;;14.33;13.00;;;;;24.09;47.06;100332.97;5077195;27;45552;-71
2022/06/19 01:56:25;;;;;;;;;11.33;11.00;;;;;23.90;47.11;100309.78;5077460;27;45497;-70
2022/06/19 01:58:54;;;;;;;;;14.67;13.00;;;;;23.62;47.92;100305.16;5076686;27;45670;-71
2022/06/19 02:01:20;;;;;;;;;15.33;14.33;;;;;23.37;48.10;100278.28;5075593;28;45514;-73
2022/06/19 02:03:57;;;;;;;;;14.67;13.33;;;;;23.29;48.11;100268.63;5077287;27;45251;-72
2022/06/19 02:06:27;;;;;;;;;10.33;8.00;;;;;23.53;47.81;100322.84;5077046;27;45516;-69
2022/06/19 02:08:53;;;;;;;;;12.00;11.00;;;;;23.17;48.16;100291.41;5076644;28;45427;-71
2022/06/19 02:11:20;;;;;;;;;10.67;9.33;;;;;23.00;47.79;100299.44;5076835;27;45328;-70
2022/06/19 02:13:48;;;;;;;;;16.33;14.00;;;;;22.94;48.45;100362.75;5077122;27;45265;-71
2022/06/19 02:16:16;;;;;;;;;11.33;11.33;;;;;22.48;49.27;100349.91;5077278;27;45238;-70
2022/06/19 02:18:45;;;;;;;;;12.33;9.33;;;;;22.47;49.91;100435.78;5076977;27;46643;-71
2022/06/19 02:21:19;;;;;;;;;16.33;11.33;;;;;22.25;50.43;100434.63;5077006;27;45556;-71
2022/06/19 02:23:47;;;;;;;;;12.33;11.00;;;;;22.28;50.71;100409.78;5077152;27;45428;-71
2022/06/19 02:26:13;;;;;;;;;10.00;10.00;;;;;22.33;50.34;100409.91;5077157;28;45451;-69
2022/06/19 02:28:42;;;;;;;;;11.00;10.00;;;;;22.27;50.38;100406.25;5076697;28;45818;-70
2022/06/19 02:31:07;;;;;;;;;12.67;11.00;;;;;21.97;50.45;100362.03;5075343;28;45577;-70
2022/06/19 02:33:40;;;;;;;;;12.33;9.33;;;;;22.35;50.57;100424.03;5092681;27;45404;-73
2022/06/19 02:36:44;;;;;;;;;14.67;10.00;;;;;22.39;50.27;100406.28;5077077;28;45277;-72
2022/06/19 02:39:37;;;;;;;;;10.33;10.33;;;;;22.43;50.02;100415.63;5078021;28;45615;-71
2022/06/19 02:42:21;;;;;;;;;12.67;10.00;;;;;22.33;50.60;100401.78;5080281;28;45343;-69
2022/06/19 02:44:58;;;;;;;;;13.00;8.33;;;;;22.22;50.26;100389.00;5080028;27;45255;-71
2022/06/19 02:47:25;;;;;;;;;9.67;9.00;;;;;21.64;50.32;100302.94;5080345;27;45343;-70
2022/06/19 02:49:51;;;;;;;;;12.00;10.00;;;;;22.19;50.50;100421.97;5096240;27;47687;-70
2022/06/19 02:52:16;;;;;;;;;12.67;9.67;;;;;22.37;50.50;100606.13;5084055;27;45358;-71
2022/06/19 02:54:42;;;;;;;;;10.67;8.00;;;;;22.62;49.61;100668.38;5081191;27;45339;-72
2022/06/19 02:57:10;;;;;;;;;12.33;9.67;;;;;22.71;49.45;100509.84;5080507;27;45507;-71
2022/06/19 02:59:36;;;;;;;;;11.00;10.33;;;;;22.66;49.23;100563.91;5079915;27;48309;-71
2022/06/19 03:02:01;;;;;;;;;7.33;7.00;;;;;22.89;49.26;100617.44;5079901;27;45243;-72
2022/06/19 03:04:32;;;;;;;;;11.00;10.00;;;;;22.98;48.63;100614.16;5080060;27;45449;-72
2022/06/19 03:06:58;;;;;;;;;7.33;7.33;;;;;22.97;48.69;100584.59;5080252;27;45356;-70
2022/06/19 03:09:24;;;;;;;;;12.33;9.33;;;;;23.09;48.47;100615.28;5095325;27;45772;-71
2022/06/19 03:11:50;;;;;;;;;10.33;6.67;;;;;23.16;48.39;100588.91;5079746;27;45306;-71
2022/06/19 03:14:15;;;;;;;;;13.67;13.67;;;;;23.14;48.32;100580.16;5079797;28;45313;-70
2022/06/19 03:16:41;;;;;;;;;14.00;11.00;;;;;22.32;48.21;100462.44;5079969;27;45299;-69
2022/06/19 03:19:07;;;;;;;;;12.33;12.33;;;;;23.21;48.16;100544.81;5079451;28;45571;-70
2022/06/19 03:21:32;;;;;;;;;8.67;8.33;;;;;23.25;47.45;100533.28;5079501;27;45422;-69
2022/06/19 03:23:58;;;;;;;;;10.67;10.00;;;;;23.31;47.45;100575.75;5079668;27;45181;-70
2022/06/19 03:26:26;;;;;;;;;11.67;10.67;;;;;23.34;47.49;100594.28;5079733;28;45208;-70
2022/06/19 03:28:51;;;;;;;;;12.00;9.67;;;;;22.71;47.56;100442.91;5079518;27;45833;-71
2022/06/19 03:31:21;;;;;;;;;12.67;10.33;;;;;23.27;47.14;100536.59;5079481;27;45321;-69
2022/06/19 03:33:46;;;;;;;;;13.33;11.33;;;;;23.15;47.49;100554.72;5079572;28;45467;-69
2022/06/19 03:36:12;;;;;;;;;11.67;11.00;;;;;23.03;47.80;100534.88;5079802;28;45220;-71
2022/06/19 03:38:37;;;;;;;;;11.00;10.00;;;;;22.90;48.41;100552.16;5079360;27;46527;-71
2022/06/19 03:41:03;;;;;;;;;12.33;10.33;;;;;22.96;48.17;100569.38;5079193;27;45364;-69
2022/06/19 03:43:28;;;;;;;;;8.67;8.00;;;;;22.97;48.31;100573.75;5079533;27;45425;-71
2022/06/19 03:45:58;;;;;;;;;11.33;10.33;;;;;22.94;47.64;100582.34;5095317;27;45356;-71
2022/06/19 03:48:24;;;;;;;;;13.00;11.33;;;;;22.89;47.65;100587.63;5094604;27;47545;-72
2022/06/19 03:50:51;;;;;;;;;12.00;11.67;;;;;22.96;47.80;100589.19;5078458;27;45380;-71
2022/06/19 03:53:17;;;;;;;;;15.67;11.67;;;;;22.93;47.43;100556.28;5079329;27;45439;-71
2022/06/19 03:55:42;;;;;;;;;15.00;11.33;;;;;22.85;47.55;100524.09;5079233;27;45215;-72
2022/06/19 03:58:08;;;;;;;;;13.00;10.00;;;;;22.71;47.51;100502.53;5078968;28;46284;-70
2022/06/19 04:00:33;;;;;;;;;15.67;13.00;;;;;22.50;48.77;100550.97;5079056;27;45426;-70
2022/06/19 04:02:59;;;;;;;;;12.33;12.33;;;;;22.53;48.59;100594.69;5079216;27;45511;-71
2022/06/19 04:05:24;;;;;;;;;12.33;11.33;;;;;21.63;48.39;100474.41;5079385;27;45596;-72
2022/06/19 04:07:50;;;;;;;;;12.67;12.33;;;;;22.52;48.71;100700.59;5077401;28;46984;-68
2022/06/19 04:10:17;;;;;;;;;15.00;12.67;;;;;22.43;49.59;100730.69;5078942;28;45454;-70
2022/06/19 04:12:42;;;;;;;;;15.33;13.00;;;;;22.46;48.59;100658.97;5078978;27;45497;-70
2022/06/19 04:15:10;;;;;;;;;14.67;14.67;;;;;22.56;53.80;100502.13;5077575;28;45517;-70
2022/06/19 04:17:36;;;;;;;;;14.00;13.33;;;;;22.34;54.51;100468.44;5094301;27;46712;-71
2022/06/19 04:20:03;;;;;;;;;12.67;9.67;;;;;21.62;54.49;100351.00;5078798;27;45216;-70
2022/06/19 04:22:29;;;;;;;;;15.00;13.33;;;;;22.14;54.93;100455.97;5078687;27;45325;-69
2022/06/19 04:24:54;;;;;;;;;18.00;12.67;;;;;22.03;56.79;100448.59;5078736;27;45504;-69
2022/06/19 04:27:19;;;;;;;;;17.67;14.33;;;;;22.07;56.01;100476.88;5093875;27;47587;-71
2022/06/19 04:29:45;;;;;;;;;16.67;15.00;;;;;21.98;55.62;100478.19;5078700;27;45280;-70
2022/06/19 04:32:10;;;;;;;;;15.00;13.33;;;;;21.95;55.03;100478.66;5078752;28;45505;-70
2022/06/19 04:34:35;;;;;;;;;14.33;13.00;;;;;21.99;55.05;100477.13;5078594;27;45469;-72
2022/06/19 04:37:01;;;;;;;;;10.67;10.33;;;;;21.74;54.95;100460.97;5078460;27;46736;-69
2022/06/19 04:39:26;;;;;;;;;14.00;10.33;;;;;21.62;55.54;100486.25;5076882;27;45500;-70
2022/06/19 04:41:51;;;;;;;;;16.33;13.33;;;;;21.49;55.53;100463.72;5076733;28;45386;-70
2022/06/19 04:44:18;;;;;;;;;15.33;10.00;;;;;20.79;55.64;100365.72;5078495;27;45497;-71
2022/06/19 04:46:44;;;;;;;;;14.00;11.00;;;;;21.53;54.74;100518.19;5078878;27;46169;-70
2022/06/19 04:49:11;;;;;;;;;13.67;10.33;;;;;21.17;54.99;100451.25;5076935;28;45348;-72
2022/06/19 04:51:40;;;;;;;;;12.33;10.33;;;;;20.73;55.11;100415.22;5094646;27;45486;-72
2022/06/19 04:54:05;;;;;;;;;12.00;11.00;;;;;21.39;54.64;100516.63;5077569;27;45680;-69
2022/06/19 04:56:31;;;;;;;;;10.67;8.67;;;;;21.24;54.74;100446.69;5077968;28;46552;-71
2022/06/19 04:58:56;;;;;;;;;12.67;12.00;;;;;21.09;54.91;100454.25;5076339;27;45670;-70
2022/06/19 05:01:30;;;;;;;;;18.33;12.33;;;;;20.75;54.70;100387.97;5076400;28;45330;-72
2022/06/19 05:03:58;;;;;;;;;11.00;9.33;;;;;21.05;55.23;100480.91;5077171;27;45453;-71
2022/06/19 05:06:24;;;;;;;;;7.67;7.67;;;;;21.24;54.63;100538.63;5077613;28;46400;-72
2022/06/19 05:08:50;;;;;;;;;6.33;6.33;;;;;21.29;54.56;100509.03;5077676;27;45307;-70
2022/06/19 05:11:16;;;;;;;;;10.33;9.00;;;;;21.03;55.64;100506.50;5076533;28;45284;-70
2022/06/19 05:13:43;;;;;;;;;8.33;7.00;;;;;21.28;55.34;100591.19;5076534;28;45320;-69
2022/06/19 05:16:14;;;;;;;;;9.33;9.33;;;;;21.37;55.15;100559.31;5077676;27;45726;-71
2022/06/19 05:18:40;;;;;;;;;12.33;8.67;;;;;21.42;54.53;100440.47;5077593;28;45389;-71
2022/06/19 05:21:05;;;;;;;;;10.00;9.33;;;;;21.18;56.17;100410.50;5076395;28;45348;-69
2022/06/19 05:23:36;;;;;;;;;9.67;9.33;;;;;21.10;56.08;100439.69;5078177;27;45449;-70
2022/06/19 05:26:07;;;;;;;;;10.33;8.67;;;;;20.93;56.61;100398.84;5077790;27;45421;-71
2022/06/19 05:28:34;;;;;;;;;8.00;7.67;;;;;20.91;56.42;100331.53;5077344;27;45521;-71
2022/06/19 05:31:00;;;;;;;;;5.00;4.00;;;;;20.86;56.19;100276.50;5076130;28;45295;-71
2022/06/19 05:33:28;;;;;;;;;10.00;7.67;;;;;20.64;55.50;100330.09;5076365;28;45341;-71
2022/06/19 05:35:54;;;;;;;;;6.00;4.33;;;;;20.61;55.65;100422.34;5077400;27;45605;-69
2022/06/19 05:38:20;;;;;;;;;8.33;8.33;;;;;20.36;57.02;100374.50;5077307;28;45403;-69
2022/06/19 05:40:45;;;;;;;;;7.67;6.67;;;;;20.49;56.91;100408.72;5077393;28;45459;-69
2022/06/19 05:43:12;;;;;;;;;7.00;5.67;;;;;19.84;56.72;100302.75;5076364;28;45636;-70
2022/06/19 05:45:38;;;;;;;;;10.00;7.67;;;;;20.65;56.58;100442.50;5075702;28;47145;-69
2022/06/19 05:48:04;;;;;;;;;8.33;5.67;;;;;20.23;55.89;100379.97;5077340;27;45381;-70
2022/06/19 05:50:29;;;;;;;;;10.67;6.67;;;;;20.52;56.73;100458.78;5092891;27;45322;-70
2022/06/19 05:52:55;;;;;;;;;9.33;8.00;;;;;20.45;56.22;100439.09;5076144;28;45278;-71
2022/06/19 05:55:21;;;;;;;;;6.67;6.67;;;;;20.57;55.31;100419.25;5077294;28;46137;-69
2022/06/19 05:57:46;;;;;;;;;7.00;6.67;;;;;20.40;55.94;100379.44;5077202;27;45476;-69
2022/06/19 06:00:12;;;;;;;;;11.67;10.33;;;;;19.95;56.37;100304.75;5077652;27;45502;-72
2022/06/19 06:02:37;;;;;;;;;43.33;37.67;;;;;20.06;56.62;100335.66;5077264;28;45307;-71
2022/06/19 06:05:04;;;;;;;;;61.50;49.75;;;;;19.90;56.79;100274.09;5076933;27;45604;-69
2022/06/19 06:07:30;;;;;;;;;50.33;41.33;;;;;19.96;57.23;100278.59;5075424;28;45368;-70
2022/06/19 06:09:55;;;;;;;;;24.67;24.67;;;;;20.12;57.03;100320.44;5075859;28;45424;-71
2022/06/19 06:12:20;;;;;;;;;10.67;9.67;;;;;20.17;56.74;100324.16;5077317;27;45413;-70
2022/06/19 06:14:46;;;;;;;;;7.67;6.33;;;;;19.96;56.21;100292.91;5079217;27;45843;-70
2022/06/19 06:17:11;;;;;;;;;5.00;5.00;;;;;19.33;56.52;100229.94;5080599;27;45437;-67
2022/06/19 06:19:37;;;;;;;;;6.33;4.00;;;;;19.36;56.35;100261.84;5081547;27;45468;-70
2022/06/19 06:22:04;;;;;;;;;6.00;6.00;;;;;19.91;56.53;100400.66;5079693;28;45556;-70
2022/06/19 06:24:30;;;;;;;;;10.00;6.00;;;;;20.20;56.65;100465.94;5080562;27;45470;-69
2022/06/19 06:26:55;;;;;;;;;6.67;6.67;;;;;20.18;55.08;100444.56;5080131;27;45496;-71
2022/06/19 06:29:21;;;;;;;;;9.00;6.00;;;;;20.44;55.86;100496.84;5080579;27;45444;-71
2022/06/19 06:31:47;;;;;;;;;5.00;3.33;;;;;20.57;54.92;100523.78;5080696;27;45510;-72
2022/06/19 06:34:12;;;;;;;;;6.67;4.00;;;;;20.55;54.43;100471.84;5080563;27;45252;-72
2022/06/19 06:36:38;;;;;;;;;5.00;4.00;;;;;20.69;54.94;100522.06;5080477;27;45342;-71
2022/06/19 06:39:04;;;;;;;;;5.00;4.00;;;;;20.27;55.62;100424.41;5080457;27;45542;-72
2022/06/19 06:41:29;;;;;;;;;6.33;5.00;;;;;20.87;54.70;100488.91;5080677;27;45400;-70
2022/06/19 06:43:55;;;;;;;;;7.33;6.67;;;;;20.17;54.57;100351.13;5095548;27;47820;-68
2022/06/19 06:46:23;;;;;;;;;4.00;4.00;;;;;21.02;54.14;100480.50;5080014;27;45296;-69
2022/06/19 06:48:52;;;;;;;;;6.33;5.67;;;;;21.04;54.11;100481.94;5079958;27;45240;-69
2022/06/19 06:51:21;;;;;;;;;8.67;6.67;;;;;21.09;54.57;100475.88;5080347;27;45582;-72
2022/06/19 06:53:46;;;;;;;;;3.67;3.33;;;;;21.09;54.21;100397.50;5095720;27;48538;-69
2022/06/19 06:56:12;;;;;;;;;8.67;7.67;;;;;20.84;55.48;100314.56;5078481;28;46113;-72
2022/06/19 06:58:39;;;;;;;;;6.00;6.00;;;;;19.50;56.13;100133.22;5080101;27;45269;-71
2022/06/19 07:01:15;;;;;;;;;9.33;6.00;;;;;20.75;55.71;100348.28;5080079;27;45470;-71
2022/06/19 07:03:41;;;;;;;;;9.67;5.00;;;;;20.72;55.84;100337.91;5078391;28;48336;-69
2022/06/19 07:06:06;;;;;;;;;9.33;8.33;;;;;20.59;56.30;100338.00;5079846;27;45410;-70
2022/06/19 07:08:32;;;;;;;;;4.33;4.33;;;;;20.74;55.89;100379.06;5079737;27;45335;-70
2022/06/19 07:10:57;;;;;;;;;12.00;7.33;;;;;20.69;55.37;100407.78;5080015;27;45440;-71
2022/06/19 07:13:22;;;;;;;;;9.00;7.00;;;;;20.34;55.78;100371.19;5078064;28;47729;-71
2022/06/19 07:15:50;;;;;;;;;7.33;6.33;;;;;20.20;56.46;100321.00;5079574;27;45480;-73
2022/06/19 07:18:16;;;;;;;;;7.00;6.00;;;;;20.55;56.02;100404.31;5079752;28;45287;-70
2022/06/19 07:20:41;;;;;;;;;7.33;7.33;;;;;20.64;56.45;100502.97;5079941;27;45311;-71
2022/06/19 07:23:06;;;;;;;;;5.00;5.00;;;;;20.66;56.72;100506.28;5079464;27;46059;-71
2022/06/19 07:25:32;;;;;;;;;6.00;5.00;;;;;20.84;55.28;100528.03;5078604;27;45364;-69
2022/06/19 07:27:59;;;;;;;;;8.33;6.33;;;;;21.03;54.95;100550.56;5095184;27;45444;-72
2022/06/19 07:30:26;;;;;;;;;6.33;5.67;;;;;20.90;55.44;100489.31;5079691;27;45304;-70
2022/06/19 07:32:52;;;;;;;;;8.67;4.00;;;;;21.16;54.25;100566.69;5078044;28;47897;-70
2022/06/19 07:35:18;;;;;;;;;6.67;5.00;;;;;21.27;53.82;100638.22;5079037;27;45340;-71
2022/06/19 07:37:43;;;;;;;;;5.67;5.00;;;;;20.81;53.86;100604.09;5079321;27;45321;-73
2022/06/19 07:40:12;;;;;;;;;6.67;5.33;;;;;21.19;53.39;100625.72;5079571;28;45420;-73
2022/06/19 07:42:37;;;;;;;;;11.67;9.67;;;;;21.35;52.61;100605.50;5077789;28;48595;-71
2022/06/19 07:45:03;;;;;;;;;7.67;5.00;;;;;21.42;52.34;100646.84;5078998;27;45671;-71
2022/06/19 07:50:17;;;;;;;;;7.00;6.00;;;;;21.59;52.06;100617.41;5079202;28;45530;-71
2022/06/19 07:52:46;;;;;;;;;6.00;5.00;;;;;21.67;52.27;100622.56;5077661;28;47188;-69
2022/06/19 07:55:18;;;;;;;;;6.33;6.00;;;;;21.72;51.68;100602.94;5078769;27;45368;-71
2022/06/19 07:57:44;;;;;;;;;4.00;4.00;;;;;21.70;51.35;100611.28;5078908;27;45334;-70
2022/06/19 08:00:19;;;;;;;;;5.00;4.67;;;;;21.66;51.96;100639.84;5094676;27;45523;-70
2022/06/19 08:02:50;;;;;;;;;4.33;4.33;;;;;21.69;52.37;100703.50;5078800;27;45620;-70
2022/06/19 08:05:17;;;;;;;;;10.67;9.00;;;;;21.81;51.65;100731.53;5078723;27;45544;-72
2022/06/19 08:07:42;;;;;;;;;25.33;22.33;;;;;21.78;51.78;100651.59;5078604;27;45481;-70
2022/06/19 08:10:09;;;;;;;;;9.33;7.00;;;;;21.93;51.22;100655.88;5079117;27;45628;-71
2022/06/19 08:12:35;;;;;;;;;6.67;6.67;;;;;22.03;50.99;100680.59;5078554;28;45655;-70
2022/06/19 08:15:00;;;;;;;;;5.67;4.67;;;;;22.01;50.56;100634.75;5078724;27;45257;-71
2022/06/19 08:17:25;;;;;;;;;8.67;6.33;;;;;22.05;51.25;100592.69;5077477;27;45470;-69
2022/06/19 08:19:51;;;;;;;;;5.67;5.67;;;;;21.92;50.58;100576.53;5077561;28;45596;-71
2022/06/19 08:22:16;;;;;;;;;6.67;6.67;;;;;21.73;50.68;100572.13;5078306;28;45400;-69
2022/06/19 08:24:42;;;;;;;;;9.33;6.00;;;;;21.85;50.90;100603.69;5078690;27;45410;-69
2022/06/19 08:27:07;;;;;;;;;7.00;7.00;;;;;21.58;51.65;100572.47;5078576;27;45312;-70
2022/06/19 08:29:33;;;;;;;;;7.00;7.00;;;;;21.56;52.18;100559.16;5078821;27;45538;-70
2022/06/19 08:31:59;;;;;;;;;10.67;7.67;;;;;21.29;52.29;100522.56;5076952;28;46513;-71
2022/06/19 08:34:26;;;;;;;;;6.67;6.67;;;;;21.32;52.38;100522.09;5078425;27;45232;-71
2022/06/19 08:36:52;;;;;;;;;5.33;5.00;;;;;21.30;52.33;100507.16;5078130;27;45448;-72
2022/06/19 08:39:19;;;;;;;;;9.00;9.00;;;;;19.23;52.83;100187.28;5078492;27;45573;-73
2022/06/19 08:42:03;;;;;;;;;9.67;7.00;;;;;21.22;53.03;100500.09;5076648;27;48037;-70
2022/06/19 08:44:46;;;;;;;;;6.67;6.67;;;;;21.30;53.22;100477.41;5076563;28;46351;-69
2022/06/19 08:47:51;;;;;;;;;8.00;6.00;;;;;21.12;53.75;100468.16;5094069;27;45410;-71
2022/06/19 08:50:34;;;;;;;;;9.33;6.00;;;;;21.06;53.56;100454.69;5064668;28;45506;-70
2022/06/19 08:53:14;;;;;;;;;6.33;6.33;;;;;21.04;53.87;100459.50;5077669;27;45731;-71
2022/06/19 08:55:55;;;;;;;;;9.67;8.00;;;;;21.09;53.75;100497.50;5093665;27;45613;-70
2022/06/19 08:58:20;;;;;;;;;10.33;8.67;;;;;21.02;54.01;100494.81;5078018;27;45556;-71
2022/06/19 09:01:25;;;;;;;;;7.67;7.67;;;;;20.99;53.98;100475.53;5078509;28;45169;-71
2022/06/19 09:07:23;;;;;;;;;13.00;11.67;;;;;21.24;53.62;100498.06;5077721;28;45555;-71
2022/06/19 09:10:19;;;;;;;;;12.67;12.00;;;;;21.39;53.75;100509.34;5077597;27;45281;-69
2022/06/19 09:12:54;;;;;;;;;10.33;9.00;;;;;21.56;53.13;100534.81;5077878;28;45237;-69
2022/06/19 09:15:38;;;;;;;;;10.00;10.00;;;;;21.02;52.55;100475.09;5093100;27;45426;-68
2022/06/19 09:18:09;;;;;;;;;14.00;14.00;;;;;21.51;53.00;100587.91;5077616;27;45466;-70
2022/06/19 09:20:45;;;;;;;;;11.67;10.33;;;;;21.49;52.85;100606.25;5077515;27;45587;-69
2022/06/19 09:23:34;;;;;;;;;13.00;12.67;;;;;21.34;53.05;100593.03;5077797;27;45601;-70
2022/06/19 09:26:15;;;;;;;;;11.67;11.67;;;;;21.49;52.98;100604.38;5077372;27;46506;-70
2022/06/19 09:28:44;;;;;;;;;12.00;12.00;;;;;21.55;53.12;100608.91;5094002;27;45497;-72
2022/06/19 09:31:27;;;;;;;;;17.33;15.33;;;;;21.69;53.33;100614.22;5077517;28;45243;-71
2022/06/19 09:33:56;;;;;;;;;12.00;11.00;;;;;21.73;52.60;100589.19;5077486;28;45217;-71
2022/06/19 09:36:21;;;;;;;;;15.00;13.33;;;;;22.06;52.57;100621.44;5077583;27;45985;-70
2022/06/19 09:38:53;;;;;;;;;15.33;13.33;;;;;22.28;52.24;100612.91;5077285;27;45424;-72
2022/06/19 09:41:34;;;;;;;;;12.67;12.00;;;;;22.36;51.48;100604.47;5077284;27;45325;-71
2022/06/19 09:44:27;;;;;;;;;11.67;11.67;;;;;22.59;51.30;100599.19;5075803;28;45634;-72
2022/06/19 09:47:08;;;;;;;;;14.00;12.00;;;;;22.97;51.05;100611.69;5092785;27;48460;-71
2022/06/19 09:49:42;;;;;;;;;12.33;12.33;;;;;23.17;50.04;100606.81;5076341;27;45430;-72
2022/06/19 09:52:13;;;;;;;;;12.67;12.67;;;;;23.33;49.72;100611.59;5075804;28;45509;-71
2022/06/19 09:54:46;;;;;;;;;8.00;7.00;;;;;23.45;49.21;100608.13;5076963;28;45488;-71
2022/06/19 09:57:21;;;;;;;;;18.00;14.67;;;;;23.57;48.72;100614.41;5075786;28;46886;-72
2022/06/19 10:00:12;;;;;;;;;14.33;13.67;;;;;23.66;49.25;100603.00;5077175;28;45318;-71
2022/06/19 10:02:49;;;;;;;;;14.67;13.00;;;;;23.79;48.77;100620.13;5077260;27;45215;-72
2022/06/19 10:05:39;;;;;;;;;12.67;11.00;;;;;23.86;47.74;100605.38;5077583;27;45434;-69
2022/06/19 10:08:53;;;;;;;;;16.33;13.00;;;;;23.93;47.51;100600.66;5075647;28;48514;-73
2022/06/19 10:11:23;;;;;;;;;14.67;13.00;;;;;23.93;47.24;100589.81;4994586;28;45371;-71
2022/06/19 10:13:55;;;;;;;;;17.33;15.00;;;;;23.93;47.52;100581.66;4994402;28;45424;-72
2022/06/19 10:16:29;;;;;;;;;17.00;16.67;;;;;24.04;47.50;100600.91;5044414;27;45470;-71
2022/06/19 10:18:56;;;;;;;;;17.67;15.33;;;;;24.03;47.06;100572.06;5076460;28;45860;-69
2022/06/19 10:24:32;;;;;;;;;15.33;12.67;;;;;24.23;47.53;100578.00;5076733;28;45381;-72
2022/06/19 10:27:09;;;;;;;;;20.00;18.67;;;;;23.98;46.53;100522.03;5076972;27;45481;-71
2022/06/19 10:30:01;;;;;;;;;13.00;11.67;;;;;24.29;46.60;100558.06;5076666;27;47896;-69
2022/06/19 10:32:35;;;;;;;;;15.67;14.33;;;;;24.31;46.47;100564.06;5092358;27;46378;-74
2022/06/19 10:35:10;;;;;;;;;14.00;12.67;;;;;24.29;46.45;100554.50;5092525;27;45475;-70
2022/06/19 10:37:44;;;;;;;;;21.00;19.00;;;;;24.11;47.08;100520.97;5075536;28;45440;-70
2022/06/19 10:40:21;;;;;;;;;16.33;14.67;;;;;24.23;46.41;100545.41;5091924;27;46532;-71
2022/06/19 10:43:04;;;;;;;;;19.00;19.00;;;;;24.17;46.84;100551.78;5074989;28;45460;-71
2022/06/19 10:45:43;;;;;;;;;18.67;16.67;;;;;24.16;47.24;100563.69;5076477;27;45537;-69
2022/06/19 10:48:24;;;;;;;;;16.67;16.00;;;;;24.15;47.52;100559.34;5076195;28;45652;-71
2022/06/19 10:51:10;;;;;;;;;15.00;14.00;;;;;24.18;47.75;100564.28;5076308;27;46635;-70
2022/06/19 10:53:56;;;;;;;;;14.00;14.00;;;;;23.97;47.43;100533.94;5076175;28;45308;-72
2022/06/19 10:56:31;;;;;;;;;22.00;18.67;;;;;24.04;47.59;100552.03;5076245;27;45382;-71
2022/06/19 10:58:58;;;;;;;;;16.33;16.00;;;;;23.88;47.72;100543.53;5077083;28;45615;-73
2022/06/19 11:05:13;;;;;;;;;22.00;19.33;;;;;23.81;47.91;100564.53;5080589;28;45244;-72
2022/06/19 11:07:41;;;;;;;;;20.00;17.00;;;;;23.30;48.96;100511.72;5074698;27;45379;-68
2022/06/19 11:10:30;;;;;;;;;20.67;19.33;;;;;23.37;48.75;100525.97;5080644;28;45538;-69
2022/06/19 11:13:00;;;;;;;;;19.67;19.67;;;;;23.60;48.70;100552.34;5078643;28;45447;-71
2022/06/19 11:15:26;;;;;;;;;24.67;21.67;;;;;23.62;48.91;100565.69;5095713;27;46194;-69
2022/06/19 11:18:17;;;;;;;;;22.00;21.00;;;;;23.62;49.55;100576.53;5079983;28;45302;-71
2022/06/19 11:21:05;;;;;;;;;20.00;20.00;;;;;23.34;49.12;100539.19;5075312;27;45173;-73
2022/06/19 11:23:35;;;;;;;;;22.67;20.67;;;;;23.51;49.92;100571.91;5095521;27;46264;-71
2022/06/19 11:26:08;;;;;;;;;23.67;21.00;;;;;22.91;49.87;100475.19;5080080;27;45540;-69
2022/06/19 11:29:15;;;;;;;;;25.00;23.00;;;;;23.51;49.61;100566.47;5095489;27;45472;-71
2022/06/19 11:32:06;;;;;;;;;22.00;22.00;;;;;23.55;49.94;100556.81;5068297;27;45448;-71
2022/06/19 11:34:47;;;;;;;;;22.00;21.00;;;;;23.14;50.02;100460.03;5080278;27;46560;-69
2022/06/19 11:37:20;;;;;;;;;19.67;14.33;;;;;23.69;49.92;100555.56;5094672;27;45221;-70
2022/06/19 11:40:06;;;;;;;;;22.00;18.33;;;;;23.72;49.57;100568.66;5095732;27;45433;-72
2022/06/19 11:42:36;;;;;;;;;19.67;13.67;;;;;23.77;49.69;100559.81;5071008;27;45497;-73
2022/06/19 11:45:11;;;;;;;;;16.00;15.67;;;;;22.92;49.99;100389.25;5079251;27;46715;-72